Chlef Aboubakr Belkaid International Airport

METAR DAAG TAF DAAG
11 °C
°C
-
°C
21m
Idade
18:21:08
LT
17:21
UTC
0 ft

1.000

2.000

3.000

4.000

5.000

FEW 2.300
FEW 2.600
SCT 5.000
VFR
<?= Yii::t('app', 'Wind direction') ?> <?= Yii::t('app', 'of'); ?>
260°
07:50
Nascer do sol
82%
Humidade
Tesoura de Vento
Fechado/Neve
Alcance visual RWY
Condição RWY
Vert. visibilidade
Min. visibilidade
CAVOK
Tendência
Correcção
Relatório especial
1027 hPa
QNH
METAR DAAG 301700Z 26003KT 230V300 9999 FEW023TCU FEW026CB SCT050 11/08 Q1027
Nuvens espalhadas
1 kt
1 kt
18:00
VFR
10 kt
19:00
VFR
10 kt
20:00
VFR
10 kt
21:00
VFR
2 kt
22:00
VFR
2 kt
23:00
VFR
2 kt
00:00
VFR
2 kt
10 km+
Visibilidade
Nenhum
Tecto
3 kt
Vento
metar-taf.com/DAOI

Metar-Taf.com

Decodificador visual

Nós e terceiros acompanhamos seu comportamento na internet em nosso site com cookies. Se você continuar, nós assumimos que você concorda com nosso política de cookies.